createdAt,value
2018-06-23T00:00:44.439Z,12.90
2018-06-23T00:01:44.449Z,13.90
2018-06-23T00:02:44.640Z,13.80
2018-06-23T00:03:44.650Z,12.60
2018-06-23T00:04:44.465Z,15.60
2018-06-23T00:05:44.462Z,15.90
2018-06-23T00:06:44.452Z,11.40
2018-06-23T00:07:44.447Z,13.80
2018-06-23T00:08:44.437Z,15.20
2018-06-23T00:09:44.450Z,15.20
2018-06-23T00:10:44.440Z,11.50
2018-06-23T00:11:44.451Z,18.60
2018-06-23T00:12:44.645Z,16.20
2018-06-23T00:13:44.640Z,14.60
2018-06-23T00:14:44.449Z,14.80
2018-06-23T00:15:44.639Z,15.60
2018-06-23T00:16:44.640Z,17.80
2018-06-23T00:17:44.641Z,15.50
2018-06-23T00:18:44.438Z,12.50
2018-06-23T00:19:44.437Z,10.50
2018-06-23T00:20:44.437Z,13.50
2018-06-23T00:21:44.450Z,12.30
2018-06-23T00:22:44.437Z,12.70
2018-06-23T00:23:44.437Z,14.50
2018-06-23T00:24:44.437Z,14.20
2018-06-23T00:25:44.438Z,15.80
2018-06-23T00:26:44.448Z,14.40
2018-06-23T00:27:44.454Z,14.80
2018-06-23T00:28:44.438Z,17.30
2018-06-23T00:29:44.450Z,13.10
2018-06-23T00:30:44.441Z,11.80
2018-06-23T00:31:44.656Z,13.90
2018-06-23T00:32:44.638Z,17.90
2018-06-23T00:33:44.436Z,17.00
2018-06-23T00:34:44.435Z,17.00
2018-06-23T00:35:44.435Z,16.30
2018-06-23T00:36:44.449Z,15.00
2018-06-23T00:37:44.461Z,14.40
2018-06-23T00:38:44.436Z,18.60
2018-06-23T00:39:44.636Z,13.70
2018-06-23T00:40:44.445Z,13.10
2018-06-23T00:41:44.438Z,11.50
2018-06-23T00:42:44.436Z,15.00
2018-06-23T00:43:44.432Z,16.50
2018-06-23T00:44:44.437Z,13.80
2018-06-23T00:45:44.435Z,13.30
2018-06-23T00:46:44.443Z,16.80
2018-06-23T00:47:44.443Z,14.10
2018-06-23T00:48:44.635Z,12.70
2018-06-23T00:49:44.638Z,15.50
2018-06-23T00:50:44.432Z,17.10
2018-06-23T00:51:44.431Z,16.70
2018-06-23T00:52:44.434Z,14.40
2018-06-23T00:53:44.432Z,13.10
2018-06-23T00:54:44.442Z,16.60
2018-06-23T00:55:44.432Z,15.30
2018-06-23T00:56:44.459Z,15.80
2018-06-23T00:57:44.456Z,13.30
2018-06-23T00:58:44.432Z,17.40
2018-06-23T00:59:44.431Z,15.40
2018-06-23T01:00:44.432Z,16.80
2018-06-23T01:01:44.432Z,14.70
2018-06-23T01:02:44.655Z,17.70
2018-06-23T01:03:44.455Z,17.20
2018-06-23T01:04:44.635Z,16.30
2018-06-23T01:05:44.631Z,15.60
2018-06-23T01:06:44.631Z,16.70
2018-06-23T01:07:44.429Z,13.60
2018-06-23T01:08:44.428Z,14.30
2018-06-23T01:09:44.429Z,19.90
2018-06-23T01:10:44.636Z,17.60
2018-06-23T01:11:44.627Z,12.90
2018-06-23T01:12:44.438Z,17.20
2018-06-23T01:13:44.432Z,14.50
2018-06-23T01:14:44.441Z,13.60
2018-06-23T01:15:44.636Z,18.20
2018-06-23T01:16:44.647Z,17.70
2018-06-23T01:17:44.427Z,17.80
2018-06-23T01:18:44.435Z,18.80
2018-06-23T01:19:44.425Z,18.50
2018-06-23T01:20:44.424Z,18.50
2018-06-23T01:21:44.424Z,15.70
2018-06-23T01:22:44.631Z,17.20
2018-06-23T01:23:44.437Z,19.10
2018-06-23T01:24:44.625Z,19.40
2018-06-23T01:25:44.423Z,19.60
2018-06-23T01:26:44.423Z,16.40
2018-06-23T01:27:44.622Z,15.10
2018-06-23T01:28:44.431Z,16.50
2018-06-23T01:29:44.623Z,21.00
2018-06-23T01:30:44.421Z,18.30
2018-06-23T01:31:44.420Z,18.20
2018-06-23T01:32:44.429Z,18.80
2018-06-23T01:33:44.435Z,19.40
2018-06-23T01:34:44.630Z,20.60
2018-06-23T01:35:44.434Z,17.80
2018-06-23T01:36:44.418Z,20.50
2018-06-23T01:37:44.623Z,18.20
2018-06-23T01:38:44.426Z,17.70
2018-06-23T01:39:44.425Z,15.50
2018-06-23T01:40:44.414Z,17.30
2018-06-23T01:41:44.425Z,18.40
2018-06-23T01:42:44.415Z,24.00
2018-06-23T01:43:44.414Z,21.90
2018-06-23T01:44:44.422Z,20.30
2018-06-23T01:45:44.413Z,16.70
2018-06-23T01:46:44.413Z,17.70
2018-06-23T01:47:44.421Z,22.10
2018-06-23T01:48:44.411Z,21.20
2018-06-23T01:49:44.412Z,20.00
2018-06-23T01:50:44.409Z,16.90
2018-06-23T01:51:44.409Z,16.40
2018-06-23T01:52:44.613Z,18.10
2018-06-23T01:53:44.409Z,19.00
2018-06-23T01:54:44.411Z,18.50
2018-06-23T01:55:44.408Z,19.10
2018-06-23T01:56:44.423Z,19.10
2018-06-23T01:57:44.610Z,17.00
2018-06-23T01:58:44.407Z,18.80
2018-06-23T01:59:44.405Z,18.20
2018-06-23T02:00:44.417Z,16.40
2018-06-23T02:01:44.417Z,19.30
2018-06-23T02:02:44.404Z,15.50
2018-06-23T02:03:44.676Z,21.20
2018-06-23T02:04:44.419Z,22.30
2018-06-23T02:05:44.404Z,18.10
2018-06-23T02:06:44.405Z,14.80
2018-06-23T02:07:44.402Z,20.70
2018-06-23T02:08:44.402Z,21.60
2018-06-23T02:09:44.400Z,16.60
2018-06-23T02:10:44.399Z,17.90
2018-06-23T02:11:44.400Z,16.10
2018-06-23T02:12:44.402Z,18.10
2018-06-23T02:13:44.399Z,16.80
2018-06-23T02:14:44.601Z,19.10
2018-06-23T02:15:44.400Z,18.40
2018-06-23T02:16:44.613Z,17.50
2018-06-23T02:17:44.399Z,14.30
2018-06-23T02:18:44.398Z,14.80
2018-06-23T02:19:44.398Z,11.60
2018-06-23T02:20:44.394Z,13.20
2018-06-23T02:21:44.398Z,14.80
2018-06-23T02:22:44.417Z,16.70
2018-06-23T02:23:44.393Z,15.80
2018-06-23T02:24:44.395Z,12.80
2018-06-23T02:25:44.596Z,12.40
2018-06-23T02:26:44.399Z,12.90
2018-06-23T02:27:44.405Z,13.10
2018-06-23T02:28:44.404Z,19.20
2018-06-23T02:29:44.419Z,15.80
2018-06-23T02:30:44.410Z,11.40
2018-06-23T02:31:44.396Z,13.10
2018-06-23T02:32:44.605Z,15.50
2018-06-23T02:33:44.405Z,15.20
2018-06-23T02:34:44.390Z,13.80
2018-06-23T02:35:44.389Z,16.60
2018-06-23T02:36:44.389Z,12.70
2018-06-23T02:37:44.402Z,15.20
2018-06-23T02:38:44.590Z,14.90
2018-06-23T02:39:44.388Z,13.60
2018-06-23T02:40:44.405Z,13.90
2018-06-23T02:41:44.394Z,16.20
2018-06-23T02:42:44.390Z,17.40
2018-06-23T02:43:44.386Z,20.10
2018-06-23T02:44:44.393Z,17.80
2018-06-23T02:45:44.392Z,15.50
2018-06-23T02:46:44.599Z,13.90
2018-06-23T02:47:44.581Z,16.40
2018-06-23T02:48:44.410Z,15.50
2018-06-23T02:49:44.596Z,13.50
2018-06-23T02:50:44.391Z,11.80
2018-06-23T02:51:44.389Z,13.30
2018-06-23T02:52:44.389Z,15.90
2018-06-23T02:53:44.390Z,15.60
2018-06-23T02:54:44.392Z,14.90
2018-06-23T02:55:44.393Z,15.20
2018-06-23T02:56:44.376Z,17.10
2018-06-23T02:57:44.392Z,17.90
2018-06-23T02:58:44.576Z,16.10
2018-06-23T02:59:44.377Z,12.50
2018-06-23T03:00:44.375Z,14.60
2018-06-23T03:01:44.422Z,13.00
2018-06-23T03:02:44.399Z,13.60
2018-06-23T03:03:44.600Z,12.10
2018-06-23T03:04:44.373Z,10.10
2018-06-23T03:05:44.403Z,14.60
2018-06-23T03:06:44.370Z,12.30
2018-06-23T03:07:44.381Z,13.40
2018-06-23T03:08:44.582Z,7.60
2018-06-23T03:09:44.380Z,10.30
2018-06-23T03:10:44.587Z,14.40
2018-06-23T03:11:44.379Z,8.60
2018-06-23T03:12:44.567Z,12.20
2018-06-23T03:13:44.366Z,10.90
2018-06-23T03:14:44.434Z,9.20
2018-06-23T03:15:44.364Z,10.30
2018-06-23T03:16:44.367Z,12.00
2018-06-23T03:17:44.378Z,12.50
2018-06-23T03:18:44.380Z,11.20
2018-06-23T03:19:44.361Z,12.00
2018-06-23T03:20:44.372Z,15.10
2018-06-23T03:21:44.375Z,15.70
2018-06-23T03:22:44.372Z,13.10
2018-06-23T03:23:44.359Z,10.40
2018-06-23T03:24:44.563Z,12.10
2018-06-23T03:25:44.371Z,14.70
2018-06-23T03:26:44.369Z,15.80
2018-06-23T03:27:44.355Z,16.80
2018-06-23T03:28:44.365Z,11.70
2018-06-23T03:29:44.366Z,9.70
2018-06-23T03:30:44.353Z,16.70
2018-06-23T03:31:44.387Z,14.80
2018-06-23T03:32:44.353Z,15.70
2018-06-23T03:33:44.355Z,13.60
2018-06-23T03:34:44.354Z,13.30
2018-06-23T03:35:44.350Z,15.20
2018-06-23T03:36:44.363Z,10.70
2018-06-23T03:37:44.348Z,13.10
2018-06-23T03:38:44.365Z,12.80
2018-06-23T03:39:44.367Z,13.00
2018-06-23T03:40:44.357Z,12.10
2018-06-23T03:41:44.346Z,11.60
2018-06-23T03:42:44.546Z,14.80
2018-06-23T03:43:44.423Z,13.90
2018-06-23T03:44:44.371Z,13.00
2018-06-23T03:45:44.545Z,16.00
2018-06-23T03:46:44.360Z,12.40
2018-06-23T03:47:44.341Z,14.00
2018-06-23T03:48:44.342Z,16.10
2018-06-23T03:49:44.341Z,10.90
2018-06-23T03:50:44.352Z,11.50
2018-06-23T03:51:44.340Z,14.80
2018-06-23T03:52:44.353Z,12.20
2018-06-23T03:53:44.539Z,14.40
2018-06-23T03:54:44.336Z,15.30
2018-06-23T03:55:44.345Z,13.20
2018-06-23T03:56:44.544Z,9.90
2018-06-23T03:57:44.363Z,12.30
2018-06-23T03:58:44.335Z,9.40
2018-06-23T03:59:44.341Z,9.50
2018-06-23T04:00:44.344Z,10.00
2018-06-23T04:01:44.343Z,12.10
2018-06-23T04:02:44.353Z,11.50
2018-06-23T04:03:44.545Z,9.80
2018-06-23T04:04:44.359Z,10.50
2018-06-23T04:05:44.340Z,16.40
2018-06-23T04:06:44.340Z,11.70
2018-06-23T04:07:44.341Z,10.00
2018-06-23T04:08:44.340Z,15.10
2018-06-23T04:09:44.327Z,18.80
2018-06-23T04:10:44.324Z,14.50
2018-06-23T04:11:44.322Z,16.40
2018-06-23T04:12:44.343Z,16.70
2018-06-23T04:13:44.323Z,17.80
2018-06-23T04:14:44.324Z,11.80
2018-06-23T04:15:44.321Z,13.30
2018-06-23T04:16:44.356Z,12.00
2018-06-23T04:17:44.321Z,11.50
2018-06-23T04:18:44.330Z,10.50
2018-06-23T04:19:44.329Z,12.80
2018-06-23T04:20:44.334Z,14.40
2018-06-23T04:21:44.323Z,11.80
2018-06-23T04:22:44.317Z,12.20
2018-06-23T04:23:44.316Z,10.00
2018-06-23T04:24:44.519Z,15.40
2018-06-23T04:25:44.328Z,15.10
2018-06-23T04:26:44.526Z,13.70
2018-06-23T04:27:44.323Z,13.70
2018-06-23T04:28:44.313Z,10.40
2018-06-23T04:29:44.313Z,10.50
2018-06-23T04:30:44.312Z,13.80
2018-06-23T04:31:44.322Z,10.50
2018-06-23T04:32:44.314Z,13.80
2018-06-23T04:33:44.311Z,8.00
2018-06-23T04:34:44.324Z,8.80
2018-06-23T04:35:44.320Z,11.40
2018-06-23T04:36:44.519Z,11.10
2018-06-23T04:37:44.320Z,10.00
2018-06-23T04:38:44.309Z,6.80
2018-06-23T04:39:44.319Z,10.60
2018-06-23T04:40:44.517Z,13.20
2018-06-23T04:41:44.306Z,10.60
2018-06-23T04:42:44.316Z,12.60
2018-06-23T04:43:44.304Z,14.60
2018-06-23T04:44:44.302Z,13.20
2018-06-23T04:45:44.305Z,13.80
2018-06-23T04:46:44.304Z,11.70
2018-06-23T04:47:44.300Z,12.50
2018-06-23T04:48:44.312Z,10.30
2018-06-23T04:49:44.311Z,16.30
2018-06-23T04:50:44.301Z,18.60
2018-06-23T04:51:44.309Z,18.60
2018-06-23T04:52:44.309Z,18.90
2018-06-23T04:53:44.326Z,18.70
2018-06-23T04:54:44.297Z,20.70
2018-06-23T04:55:44.305Z,18.10
2018-06-23T04:56:44.306Z,19.20
2018-06-23T04:57:44.305Z,23.00
2018-06-23T04:58:44.326Z,18.10
2018-06-23T04:59:44.308Z,22.30
2018-06-23T05:00:44.312Z,23.00
2018-06-23T05:01:44.293Z,14.30
2018-06-23T05:02:44.302Z,21.80
2018-06-23T05:03:44.349Z,22.30
2018-06-23T05:04:44.293Z,22.30
2018-06-23T05:05:44.305Z,18.20
2018-06-23T05:06:44.306Z,19.60
2018-06-23T05:07:44.289Z,21.40
2018-06-23T05:08:44.497Z,17.10
2018-06-23T05:09:44.310Z,16.50
2018-06-23T05:10:44.500Z,17.90
2018-06-23T05:11:44.284Z,21.40
2018-06-23T05:12:44.285Z,16.80
2018-06-23T05:13:44.285Z,17.30
2018-06-23T05:14:44.284Z,20.40
2018-06-23T05:15:44.296Z,18.60
2018-06-23T05:16:44.294Z,19.50
2018-06-23T05:17:44.284Z,21.00
2018-06-23T05:18:44.496Z,18.50
2018-06-23T05:19:44.293Z,18.80
2018-06-23T05:20:44.298Z,18.00
2018-06-23T05:21:44.284Z,19.70
2018-06-23T05:22:44.284Z,21.50
2018-06-23T05:23:44.292Z,17.80
2018-06-23T05:24:44.482Z,17.20
2018-06-23T05:25:44.278Z,19.10
2018-06-23T05:26:44.278Z,20.10
2018-06-23T05:27:44.290Z,21.30
2018-06-23T05:28:44.278Z,15.90
2018-06-23T05:29:44.288Z,19.00
2018-06-23T05:30:44.279Z,19.80
2018-06-23T05:31:44.348Z,20.20
2018-06-23T05:32:44.276Z,20.50
2018-06-23T05:33:44.479Z,19.70
2018-06-23T05:34:44.505Z,16.90
2018-06-23T05:35:44.275Z,15.80
2018-06-23T05:36:44.480Z,17.90
2018-06-23T05:37:44.304Z,17.00
2018-06-23T05:38:44.286Z,20.10
2018-06-23T05:39:44.475Z,19.60
2018-06-23T05:40:44.276Z,19.10
2018-06-23T05:41:44.275Z,17.90
2018-06-23T05:42:44.287Z,17.40
2018-06-23T05:43:44.271Z,17.10
2018-06-23T05:44:44.354Z,16.90
2018-06-23T05:45:44.273Z,17.30
2018-06-23T05:46:44.299Z,19.00
2018-06-23T05:47:44.271Z,20.00
2018-06-23T05:48:44.269Z,14.20
2018-06-23T05:49:44.270Z,18.10
2018-06-23T05:50:44.282Z,17.60
2018-06-23T05:51:44.279Z,20.90
2018-06-23T05:52:44.270Z,18.60
2018-06-23T05:53:44.268Z,22.50
2018-06-23T05:54:44.277Z,17.80
2018-06-23T05:55:44.266Z,16.90
2018-06-23T05:56:44.277Z,17.50
2018-06-23T05:57:44.264Z,21.70
2018-06-23T05:58:44.268Z,19.80
2018-06-23T05:59:44.264Z,18.20
2018-06-23T06:00:44.329Z,16.30
2018-06-23T06:01:44.265Z,17.20
2018-06-23T06:02:44.279Z,18.20
2018-06-23T06:03:44.465Z,17.20
2018-06-23T06:04:44.274Z,19.90
2018-06-23T06:05:44.274Z,18.30
2018-06-23T06:06:44.265Z,18.70
2018-06-23T06:07:44.262Z,18.20
2018-06-23T06:08:44.261Z,17.60
2018-06-23T06:09:44.287Z,17.90
2018-06-23T06:10:44.276Z,14.50
2018-06-23T06:11:44.296Z,17.60
2018-06-23T06:12:44.460Z,20.40
2018-06-23T06:13:44.262Z,15.60
2018-06-23T06:14:44.265Z,20.60
2018-06-23T06:15:44.268Z,16.20
2018-06-23T06:16:44.257Z,17.80
2018-06-23T06:17:44.459Z,16.60
2018-06-23T06:18:44.255Z,18.10
2018-06-23T06:19:44.275Z,17.80
2018-06-23T06:20:44.270Z,20.00
2018-06-23T06:21:44.266Z,15.90
2018-06-23T06:22:44.269Z,17.60
2018-06-23T06:23:44.295Z,20.50
2018-06-23T06:24:44.455Z,16.30
2018-06-23T06:25:44.254Z,15.00
2018-06-23T06:26:44.458Z,15.80
2018-06-23T06:27:44.255Z,15.90
2018-06-23T06:28:44.251Z,15.70
2018-06-23T06:29:44.251Z,22.20
2018-06-23T06:30:44.281Z,16.30
2018-06-23T06:31:44.251Z,15.90
2018-06-23T06:32:44.255Z,19.00
2018-06-23T06:33:44.249Z,18.30
2018-06-23T06:34:44.250Z,17.40
2018-06-23T06:35:44.300Z,14.30
2018-06-23T06:36:44.267Z,17.70
2018-06-23T06:37:44.255Z,17.60
2018-06-23T06:38:44.273Z,16.80
2018-06-23T06:39:44.248Z,14.50
2018-06-23T06:40:44.449Z,17.00
2018-06-23T06:41:44.247Z,15.10
2018-06-23T06:42:44.264Z,14.60
2018-06-23T06:43:44.256Z,17.90
2018-06-23T06:44:44.250Z,17.80
2018-06-23T06:45:44.258Z,14.20
2018-06-23T06:46:44.257Z,18.00
2018-06-23T06:47:44.249Z,17.40
2018-06-23T06:48:44.274Z,19.40
2018-06-23T06:49:44.248Z,14.70
2018-06-23T06:50:44.263Z,20.60
2018-06-23T06:51:44.245Z,16.30
2018-06-23T06:52:44.259Z,17.60
2018-06-23T06:53:44.259Z,17.60
2018-06-23T06:54:44.242Z,16.30
2018-06-23T06:55:44.243Z,19.50
2018-06-23T06:56:44.263Z,17.50
2018-06-23T06:57:44.239Z,19.90
2018-06-23T06:58:44.239Z,18.90
2018-06-23T06:59:44.468Z,21.30
2018-06-23T07:00:44.445Z,16.20
2018-06-23T07:01:44.270Z,18.80
2018-06-23T07:02:44.241Z,19.80
2018-06-23T07:03:44.259Z,21.90
2018-06-23T07:04:44.277Z,20.60
2018-06-23T07:05:44.241Z,22.10
2018-06-23T07:06:44.239Z,22.60
2018-06-23T07:07:44.246Z,16.40
2018-06-23T07:08:44.244Z,24.80
2018-06-23T07:09:44.249Z,23.00
2018-06-23T07:10:44.243Z,20.20
2018-06-23T07:11:44.233Z,21.10
2018-06-23T07:12:44.247Z,21.30
2018-06-23T07:13:44.235Z,17.00
2018-06-23T07:14:44.247Z,20.40
2018-06-23T07:15:44.231Z,21.20
2018-06-23T07:16:44.245Z,21.80
2018-06-23T07:17:44.291Z,22.70
2018-06-23T07:18:44.234Z,21.10
2018-06-23T07:19:44.241Z,17.70
2018-06-23T07:20:44.228Z,20.90
2018-06-23T07:21:44.242Z,21.60
2018-06-23T07:22:44.258Z,22.40
2018-06-23T07:23:44.327Z,24.30
2018-06-23T07:24:44.440Z,22.70
2018-06-23T07:25:44.225Z,23.90
2018-06-23T07:26:44.225Z,24.10
2018-06-23T07:27:44.429Z,21.70
2018-06-23T07:28:44.225Z,24.20
2018-06-23T07:29:44.236Z,25.60
2018-06-23T07:30:44.284Z,23.20
2018-06-23T07:31:44.245Z,22.50
2018-06-23T07:32:44.240Z,25.50
2018-06-23T07:33:44.223Z,26.40
2018-06-23T07:34:44.309Z,21.40
2018-06-23T07:35:44.222Z,23.30
2018-06-23T07:36:44.224Z,22.90
2018-06-23T07:37:44.237Z,27.80
2018-06-23T07:38:44.423Z,17.90
2018-06-23T07:39:44.225Z,18.90
2018-06-23T07:40:44.236Z,17.30
2018-06-23T07:41:44.219Z,18.00
2018-06-23T07:42:44.250Z,18.90
2018-06-23T07:43:44.229Z,16.80
2018-06-23T07:44:44.220Z,16.40
2018-06-23T07:45:44.233Z,18.80
2018-06-23T07:46:44.234Z,24.00
2018-06-23T07:47:44.219Z,17.90
2018-06-23T07:48:44.239Z,18.10
2018-06-23T07:49:44.231Z,18.30
2018-06-23T07:50:44.222Z,15.60
2018-06-23T07:51:44.228Z,15.30
2018-06-23T07:52:44.228Z,21.30
2018-06-23T07:53:44.227Z,15.70
2018-06-23T07:54:44.248Z,15.70
2018-06-23T07:55:44.215Z,15.90
2018-06-23T07:56:44.229Z,18.40
2018-06-23T07:57:44.418Z,15.00
2018-06-23T07:58:44.226Z,18.70
2018-06-23T07:59:44.220Z,17.80
2018-06-23T08:00:44.231Z,14.70
2018-06-23T08:01:44.316Z,15.80
2018-06-23T08:02:44.219Z,16.80
2018-06-23T08:03:44.230Z,16.20
2018-06-23T08:04:44.215Z,17.30
2018-06-23T08:05:44.226Z,18.40
2018-06-23T08:06:44.218Z,15.50
2018-06-23T08:07:44.214Z,14.90
2018-06-23T08:08:44.231Z,15.80
2018-06-23T08:09:44.215Z,16.00
2018-06-23T08:10:44.226Z,16.70
2018-06-23T08:11:44.266Z,14.50
2018-06-23T08:12:44.214Z,15.40
2018-06-23T08:13:44.231Z,16.30
2018-06-23T08:14:44.228Z,17.10
2018-06-23T08:15:44.240Z,14.40
2018-06-23T08:16:44.219Z,14.00
2018-06-23T08:17:44.227Z,17.00
2018-06-23T08:18:44.216Z,12.70
2018-06-23T08:19:44.218Z,13.30
2018-06-23T08:20:44.216Z,18.30
2018-06-23T08:21:44.231Z,12.60
2018-06-23T08:22:44.218Z,15.70
2018-06-23T08:23:44.229Z,14.50
2018-06-23T08:24:44.217Z,13.80
2018-06-23T08:25:44.230Z,18.60
2018-06-23T08:26:44.533Z,14.50
2018-06-23T08:27:44.233Z,16.40
2018-06-23T08:28:44.246Z,15.00
2018-06-23T08:29:44.218Z,14.50
2018-06-23T08:30:44.421Z,14.20
2018-06-23T08:31:44.249Z,14.30
2018-06-23T08:32:44.232Z,15.10
2018-06-23T08:33:44.222Z,12.70
2018-06-23T08:34:44.230Z,13.20
2018-06-23T08:35:44.221Z,13.10
2018-06-23T08:36:44.230Z,16.50
2018-06-23T08:37:44.257Z,16.00
2018-06-23T08:38:44.233Z,11.50
2018-06-23T08:39:44.223Z,12.30
2018-06-23T08:40:44.441Z,11.70
2018-06-23T08:41:44.221Z,12.30
2018-06-23T08:42:44.224Z,12.50
2018-06-23T08:43:44.287Z,15.00
2018-06-23T08:44:44.221Z,14.50
2018-06-23T08:45:44.237Z,13.80
2018-06-23T08:46:44.249Z,14.00
2018-06-23T08:47:44.235Z,13.10
2018-06-23T08:48:44.224Z,13.60
2018-06-23T08:49:44.225Z,15.00
2018-06-23T08:50:44.228Z,15.00
2018-06-23T08:51:44.238Z,11.50
2018-06-23T08:52:44.225Z,12.30
2018-06-23T08:53:44.225Z,12.40
2018-06-23T08:54:44.224Z,13.40
2018-06-23T08:55:44.256Z,14.40
2018-06-23T08:56:44.226Z,12.80
2018-06-23T08:57:44.430Z,13.50
2018-06-23T08:58:44.247Z,13.80
2018-06-23T08:59:44.426Z,12.40
2018-06-23T09:00:44.229Z,13.10
2018-06-23T09:01:44.241Z,14.70
2018-06-23T09:02:44.236Z,13.10
2018-06-23T09:03:44.244Z,13.70
2018-06-23T09:04:44.228Z,12.50
2018-06-23T09:05:44.444Z,11.70
2018-06-23T09:06:44.240Z,13.90
2018-06-23T09:07:44.240Z,13.10
2018-06-23T09:08:44.244Z,11.80
2018-06-23T09:09:44.243Z,11.60
2018-06-23T09:10:44.230Z,14.20
2018-06-23T09:11:44.229Z,12.60
2018-06-23T09:12:44.234Z,10.50
2018-06-23T09:13:44.296Z,14.20
2018-06-23T09:14:44.447Z,11.60
2018-06-23T09:15:44.247Z,11.20
2018-06-23T09:16:44.275Z,10.90
2018-06-23T09:17:44.232Z,13.00
2018-06-23T09:18:44.235Z,11.10
2018-06-23T09:19:44.237Z,14.30
2018-06-23T09:20:44.248Z,10.70
2018-06-23T09:21:44.265Z,13.10
2018-06-23T09:22:44.237Z,11.40
2018-06-23T09:23:44.237Z,12.90
2018-06-23T09:24:44.239Z,9.50
2018-06-23T09:25:44.277Z,10.60
2018-06-23T09:26:44.439Z,12.50
2018-06-23T09:27:44.235Z,10.30
2018-06-23T09:28:44.236Z,11.30
2018-06-23T09:29:44.248Z,11.20
2018-06-23T09:30:44.253Z,12.20
2018-06-23T09:31:44.252Z,10.90
2018-06-23T09:32:44.252Z,11.70
2018-06-23T09:33:44.240Z,7.50
2018-06-23T09:34:44.255Z,9.90
2018-06-23T09:35:44.251Z,11.60
2018-06-23T09:36:44.242Z,9.70
2018-06-23T09:37:44.243Z,10.40
2018-06-23T09:38:44.242Z,12.00
2018-06-23T09:39:44.241Z,11.20
2018-06-23T09:40:44.243Z,10.30
2018-06-23T09:41:44.240Z,9.80
2018-06-23T09:42:44.242Z,10.50
2018-06-23T09:43:44.252Z,10.80
2018-06-23T09:44:44.267Z,12.20
2018-06-23T09:45:44.259Z,13.10
2018-06-23T09:46:44.244Z,13.00
2018-06-23T09:47:44.254Z,11.40
2018-06-23T09:48:44.260Z,9.80
2018-06-23T09:49:44.261Z,9.30
2018-06-23T09:50:44.257Z,11.00
2018-06-23T09:51:44.252Z,11.50
2018-06-23T09:52:44.257Z,11.50
2018-06-23T09:53:44.246Z,10.20
2018-06-23T09:54:44.248Z,10.00
2018-06-23T09:55:44.259Z,10.90
2018-06-23T09:56:44.260Z,10.20
2018-06-23T09:57:44.246Z,6.40
2018-06-23T09:58:44.250Z,9.70
2018-06-23T09:59:44.267Z,9.40
2018-06-23T10:00:44.248Z,7.30
2018-06-23T10:01:44.248Z,7.00
2018-06-23T10:02:44.249Z,7.10
2018-06-23T10:03:44.463Z,8.00
2018-06-23T10:04:44.263Z,9.70
2018-06-23T10:05:44.271Z,8.20
2018-06-23T10:06:44.278Z,11.50
2018-06-23T10:07:44.262Z,8.60
2018-06-23T10:08:44.263Z,9.30
2018-06-23T10:09:44.262Z,11.30
2018-06-23T10:10:44.284Z,8.60
2018-06-23T10:11:44.464Z,8.80
2018-06-23T10:12:44.453Z,9.30
2018-06-23T10:13:44.457Z,7.70
2018-06-23T10:14:44.256Z,8.20
2018-06-23T10:15:44.268Z,8.60
2018-06-23T10:16:44.256Z,9.60
2018-06-23T10:17:44.256Z,9.00
2018-06-23T10:18:44.267Z,11.70
2018-06-23T10:19:44.256Z,9.00
2018-06-23T10:20:44.472Z,8.00
2018-06-23T10:21:44.261Z,7.60
2018-06-23T10:22:44.256Z,7.90
2018-06-23T10:23:44.321Z,9.60
2018-06-23T10:24:44.256Z,9.20
2018-06-23T10:25:44.257Z,10.90
2018-06-23T10:26:44.260Z,8.90
2018-06-23T10:27:44.259Z,6.80
2018-06-23T10:28:44.277Z,8.20
2018-06-23T10:29:44.257Z,8.30
2018-06-23T10:30:44.261Z,6.10
2018-06-23T10:31:44.462Z,12.40
2018-06-23T10:32:44.261Z,7.90
2018-06-23T10:33:44.290Z,9.10
2018-06-23T10:34:44.263Z,9.30
2018-06-23T10:35:44.266Z,7.50
2018-06-23T10:36:44.262Z,8.60
2018-06-23T10:37:44.263Z,10.60
2018-06-23T10:38:44.263Z,10.60
2018-06-23T10:39:44.264Z,8.30
2018-06-23T10:40:44.264Z,13.10
2018-06-23T10:41:44.266Z,12.60
2018-06-23T10:42:44.265Z,8.80
2018-06-23T10:43:44.269Z,9.70
2018-06-23T10:44:44.288Z,10.30
2018-06-23T10:45:44.268Z,9.50
2018-06-23T10:46:44.475Z,10.70
2018-06-23T10:47:44.266Z,9.40
2018-06-23T10:48:44.277Z,8.80
2018-06-23T10:49:44.279Z,8.80
2018-06-23T10:50:44.270Z,9.10
2018-06-23T10:51:44.269Z,8.00
2018-06-23T10:52:44.268Z,9.10
2018-06-23T10:53:44.269Z,8.40
2018-06-23T10:54:44.269Z,4.50
2018-06-23T10:55:44.279Z,6.10
2018-06-23T10:56:44.279Z,5.30
2018-06-23T10:57:44.490Z,7.40
2018-06-23T10:58:44.283Z,5.90
2018-06-23T10:59:44.487Z,5.90
2018-06-23T11:00:44.271Z,6.60
2018-06-23T11:01:44.302Z,7.90
2018-06-23T11:02:44.285Z,4.10
2018-06-23T11:03:44.275Z,6.50
2018-06-23T11:04:44.360Z,6.20
2018-06-23T11:05:44.277Z,5.70
2018-06-23T11:06:44.277Z,7.80
2018-06-23T11:07:44.287Z,5.30
2018-06-23T11:08:44.276Z,6.40
2018-06-23T11:09:44.280Z,5.90
2018-06-23T11:10:44.288Z,4.70
2018-06-23T11:11:44.287Z,4.30
2018-06-23T11:12:44.280Z,6.20
2018-06-23T11:13:44.279Z,4.40
2018-06-23T11:14:44.295Z,5.80
2018-06-23T11:15:44.298Z,5.10
2018-06-23T11:16:44.293Z,4.90
2018-06-23T11:17:44.282Z,3.50
2018-06-23T11:18:44.284Z,5.70
2018-06-23T11:19:44.292Z,5.00
2018-06-23T11:20:44.296Z,6.10
2018-06-23T11:21:44.296Z,5.90
2018-06-23T11:22:44.298Z,4.30
2018-06-23T11:23:44.489Z,6.50
2018-06-23T11:24:44.322Z,5.30
2018-06-23T11:25:44.287Z,7.60
2018-06-23T11:26:44.287Z,5.70
2018-06-23T11:27:44.288Z,6.70
2018-06-23T11:28:44.300Z,5.50
2018-06-23T11:29:44.290Z,5.60
2018-06-23T11:30:44.292Z,5.20
2018-06-23T11:31:44.302Z,5.50
2018-06-23T11:32:44.293Z,6.10
2018-06-23T11:33:44.297Z,6.00
2018-06-23T11:34:44.301Z,7.50
2018-06-23T11:35:44.295Z,5.20
2018-06-23T11:36:44.297Z,5.30
2018-06-23T11:37:44.296Z,8.10
2018-06-23T11:38:44.296Z,6.50
2018-06-23T11:39:44.296Z,7.70
2018-06-23T11:40:44.300Z,7.40
2018-06-23T11:41:44.303Z,7.60
2018-06-23T11:42:44.299Z,11.30
2018-06-23T11:43:44.305Z,8.00
2018-06-23T11:44:44.328Z,7.60
2018-06-23T11:45:44.300Z,10.40
2018-06-23T11:46:44.313Z,6.10
2018-06-23T11:47:44.313Z,4.50
2018-06-23T11:48:44.305Z,6.70
2018-06-23T11:49:44.306Z,5.80
2018-06-23T11:50:44.319Z,6.60
2018-06-23T11:51:44.309Z,8.40
2018-06-23T11:52:44.305Z,6.70
2018-06-23T11:53:44.316Z,7.30
2018-06-23T11:54:44.308Z,7.10
2018-06-23T11:55:44.309Z,7.50
2018-06-23T11:56:44.309Z,10.90
2018-06-23T11:57:44.323Z,7.00
2018-06-23T11:58:44.309Z,6.70
2018-06-23T11:59:44.308Z,5.20
2018-06-23T12:00:44.524Z,5.00
2018-06-23T12:01:44.325Z,5.50
2018-06-23T12:02:44.310Z,6.40
2018-06-23T12:03:44.311Z,6.10
2018-06-23T12:04:44.315Z,5.40
2018-06-23T12:05:44.313Z,3.90
2018-06-23T12:06:44.324Z,7.50
2018-06-23T12:07:44.314Z,5.60
2018-06-23T12:08:44.314Z,4.60
2018-06-23T12:09:44.316Z,6.80
2018-06-23T12:10:44.327Z,4.20
2018-06-23T12:11:44.316Z,5.60
2018-06-23T12:12:44.316Z,4.10
2018-06-23T12:13:44.316Z,6.00
2018-06-23T12:14:44.318Z,7.90
2018-06-23T12:15:44.335Z,5.60
2018-06-23T12:16:44.337Z,3.50
2018-06-23T12:17:44.322Z,5.30
2018-06-23T12:18:44.321Z,5.50
2018-06-23T12:19:44.325Z,5.70
2018-06-23T12:20:44.333Z,5.30
2018-06-23T12:21:44.323Z,4.40
2018-06-23T12:22:44.325Z,6.60
2018-06-23T12:23:44.325Z,5.10
2018-06-23T12:24:44.327Z,5.30
2018-06-23T12:25:44.326Z,6.00
2018-06-23T12:26:44.329Z,6.00
2018-06-23T12:27:44.324Z,6.00
2018-06-23T12:28:44.330Z,4.50
2018-06-23T12:29:44.327Z,8.00
2018-06-23T12:30:44.329Z,5.00
2018-06-23T12:31:44.354Z,6.40
2018-06-23T12:32:44.330Z,5.60
2018-06-23T12:33:44.335Z,5.30
2018-06-23T12:34:44.332Z,5.00
2018-06-23T12:35:44.361Z,8.60
2018-06-23T12:36:44.355Z,3.70
2018-06-23T12:37:44.333Z,6.50
2018-06-23T12:38:44.346Z,6.60
2018-06-23T12:39:44.336Z,6.90
2018-06-23T12:40:44.335Z,6.10
2018-06-23T12:41:44.422Z,6.70
2018-06-23T12:42:44.359Z,5.20
2018-06-23T12:43:44.348Z,7.10
2018-06-23T12:44:44.337Z,7.80
2018-06-23T12:45:44.339Z,9.30
2018-06-23T12:46:44.368Z,7.30
2018-06-23T12:47:44.340Z,6.60
2018-06-23T12:48:44.342Z,10.10
2018-06-23T12:49:44.353Z,9.30
2018-06-23T12:50:44.355Z,7.10
2018-06-23T12:51:44.359Z,7.50
2018-06-23T12:52:44.356Z,7.80
2018-06-23T12:53:44.360Z,6.30
2018-06-23T12:54:44.347Z,8.40
2018-06-23T12:55:44.349Z,9.10
2018-06-23T12:56:44.360Z,6.90
2018-06-23T12:57:44.348Z,6.70
2018-06-23T12:58:44.365Z,8.40